Time;durP1;ratioP1;P1;durP2;ratioP2;P2;SDS_P1;SDS_P2;PMS_P1;PMS_P2;Temp;Humidity;BMP_temperature;BMP_pressure;BME280_temperature;BME280_humidity;BME280_pressure;Samples;Min_cycle;Max_cycle;Signal;HPM_P1;HPM_P2
2022/09/07 00:01:38;;;;;;;0.00;0.00;;;;;;;17.45;80.55;99677.25;7362598;19;20625;-63
2022/09/07 00:04:03;;;;;;;0.00;0.00;;;;;;;17.43;80.59;99670.34;7361777;19;20026;-63
2022/09/07 00:06:29;;;;;;;0.00;0.00;;;;;;;17.40;80.71;99654.75;7361404;19;20038;-63
2022/09/07 00:08:55;;;;;;;0.00;0.00;;;;;;;17.51;80.27;99668.06;7357082;19;20007;-63
2022/09/07 00:11:21;;;;;;;0.00;0.00;;;;;;;17.51;80.94;99668.06;7364655;19;22164;-63
2022/09/07 00:13:48;;;;;;;0.00;0.00;;;;;;;17.55;80.58;99651.06;7360429;19;20014;-63
2022/09/07 00:16:19;;;;;;;0.10;0.10;;;;;;;17.60;80.54;99663.00;7363804;19;20010;-63
2022/09/07 00:18:45;;;;;;;0.00;0.00;;;;;;;17.61;80.45;99648.00;7359342;19;20022;-63
2022/09/07 00:21:11;;;;;;;0.00;0.00;;;;;;;17.61;80.57;99654.13;7364655;19;20476;-63
2022/09/07 00:23:38;;;;;;;0.03;0.03;;;;;;;17.62;80.72;99654.97;7361973;19;20006;-63
2022/09/07 00:26:13;;;;;;;0.00;0.00;;;;;;;17.66;80.67;99653.81;7362054;19;20486;-63
2022/09/07 00:28:39;;;;;;;0.00;0.00;;;;;;;17.58;81.26;99648.19;7360486;19;20514;-62
2022/09/07 00:31:10;;;;;;;0.00;0.00;;;;;;;17.60;81.05;99636.59;7363578;19;20097;-63
2022/09/07 00:33:36;;;;;;;0.00;0.00;;;;;;;17.55;80.94;99633.44;7361480;19;20018;-63
2022/09/07 00:36:02;;;;;;;0.10;0.10;;;;;;;17.49;81.34;99631.22;7363608;19;20081;-63
2022/09/07 00:38:27;;;;;;;0.00;0.00;;;;;;;17.52;81.19;99638.91;7361326;19;20080;-63
2022/09/07 00:40:53;;;;;;;0.00;0.00;;;;;;;17.49;81.11;99633.00;7360132;19;20017;-62
2022/09/07 00:43:55;;;;;;;0.00;0.00;;;;;;;17.53;80.63;99640.59;7362294;19;20043;-63
2022/09/07 00:46:26;;;;;;;0.00;0.00;;;;;;;17.50;81.02;99647.91;7258560;19;2004563;-63
2022/09/07 00:49:01;;;;;;;0.00;0.00;;;;;;;17.47;80.44;99645.44;7362349;19;20016;-63
2022/09/07 00:51:38;;;;;;;0.08;0.08;;;;;;;17.42;80.59;99637.00;7357204;19;20010;-63
2022/09/07 00:54:09;;;;;;;0.00;0.00;;;;;;;17.32;80.79;99620.94;7355573;19;20009;-63
2022/09/07 00:56:40;;;;;;;0.00;0.00;;;;;;;17.38;80.87;99634.56;7358502;19;20694;-63
2022/09/07 00:59:08;;;;;;;0.00;0.00;;;;;;;17.35;81.26;99636.59;7358596;19;20616;-63
2022/09/07 01:01:34;;;;;;;0.00;0.00;;;;;;;17.32;81.11;99642.91;7359728;19;20021;-63
2022/09/07 01:04:00;;;;;;;0.10;0.10;;;;;;;17.31;81.24;99635.94;7358008;19;20040;-63
2022/09/07 01:06:33;;;;;;;0.00;0.00;;;;;;;17.34;81.62;99634.91;7354996;19;20030;-63
2022/09/07 01:09:03;;;;;;;0.00;0.00;;;;;;;17.30;81.77;99634.25;7357542;19;20406;-63
2022/09/07 01:11:30;;;;;;;0.00;0.00;;;;;;;17.30;81.44;99634.25;7354048;19;20010;-63
2022/09/07 01:13:57;;;;;;;0.00;0.00;;;;;;;17.28;81.38;99625.56;7354872;19;20015;-63
2022/09/07 01:16:34;;;;;;;0.00;0.00;;;;;;;17.31;81.85;99627.19;7357042;19;21967;-63
2022/09/07 01:19:02;;;;;;;0.00;0.00;;;;;;;17.28;82.17;99615.03;7356672;19;20474;-64
2022/09/07 01:21:39;;;;;;;0.00;0.00;;;;;;;17.29;82.22;99621.16;7358782;19;20038;-64
2022/09/07 01:24:23;;;;;;;0.00;0.00;;;;;;;17.32;81.94;99615.66;7361792;19;20010;-64
2022/09/07 01:27:26;;;;;;;0.00;0.00;;;;;;;17.31;81.77;99617.47;7363250;19;20352;-64
2022/09/07 01:30:03;;;;;;;0.03;0.03;;;;;;;17.26;82.71;99609.00;7263878;19;2004285;-64
2022/09/07 01:33:00;;;;;;;0.10;0.10;;;;;;;17.32;81.55;99615.66;7365942;19;20078;-64
2022/09/07 01:35:51;;;;;;;0.00;0.00;;;;;;;17.30;82.20;99607.03;7261680;19;2004457;-64
2022/09/07 01:38:33;;;;;;;0.10;0.10;;;;;;;17.31;81.42;99612.19;7365115;19;20014;-64
2022/09/07 01:41:21;;;;;;;0.00;0.00;;;;;;;17.31;81.76;99609.53;7365296;19;20035;-64
2022/09/07 01:44:14;;;;;;;0.00;0.00;;;;;;;17.30;81.90;99613.16;7365709;19;20025;-64
2022/09/07 01:46:51;;;;;;;0.10;0.10;;;;;;;17.30;82.12;99618.41;7263400;19;2004575;-64
2022/09/07 01:49:18;;;;;;;0.00;0.00;;;;;;;17.29;82.35;99606.19;7365011;19;20605;-64
2022/09/07 01:51:49;;;;;;;0.00;0.00;;;;;;;17.27;82.08;99597.50;7365449;19;20018;-63
2022/09/07 01:54:25;;;;;;;0.00;0.00;;;;;;;17.25;81.78;99585.38;7364609;19;20577;-64
2022/09/07 01:56:56;;;;;;;0.00;0.00;;;;;;;17.27;82.14;99602.78;7364223;19;20022;-63
2022/09/07 01:59:33;;;;;;;0.00;0.00;;;;;;;17.31;82.00;99592.88;7355267;19;20031;-64
2022/09/07 02:01:59;;;;;;;0.00;0.00;;;;;;;17.27;82.42;99592.22;7358891;19;20338;-64
2022/09/07 02:04:35;;;;;;;0.00;0.00;;;;;;;17.31;82.02;99593.72;7361704;19;20014;-63
2022/09/07 02:07:10;;;;;;;0.00;0.00;;;;;;;17.29;82.22;99595.63;7361469;19;20404;-64
2022/09/07 02:09:41;;;;;;;0.00;0.00;;;;;;;17.30;82.03;99588.56;7365290;19;20014;-64
2022/09/07 02:12:17;;;;;;;0.00;0.00;;;;;;;17.29;81.96;99598.25;7366709;19;20011;-64
2022/09/07 02:14:48;;;;;;;0.10;0.10;;;;;;;17.24;82.15;99592.47;7363240;19;20065;-64
2022/09/07 02:17:21;;;;;;;0.03;0.03;;;;;;;17.28;82.27;99593.91;7367594;19;20023;-64
2022/09/07 02:19:51;;;;;;;0.00;0.00;;;;;;;17.22;82.52;99583.78;7365639;19;20563;-64
2022/09/07 02:22:23;;;;;;;0.03;0.03;;;;;;;17.27;81.69;99584.31;7367978;19;20006;-64
2022/09/07 02:24:54;;;;;;;0.10;0.10;;;;;;;17.26;82.40;99584.44;7364891;19;20014;-64
2022/09/07 02:27:39;;;;;;;0.00;0.00;;;;;;;17.28;81.54;99583.34;7366228;19;20010;-64
2022/09/07 02:30:05;;;;;;;0.00;0.00;;;;;;;17.23;81.85;99588.09;7366023;19;20594;-64
2022/09/07 02:32:31;;;;;;;0.00;0.00;;;;;;;17.23;82.05;99579.34;7364463;19;20007;-64
2022/09/07 02:34:56;;;;;;;0.00;0.00;;;;;;;17.23;82.11;99585.47;7366920;19;20821;-64
2022/09/07 02:37:23;;;;;;;0.00;0.00;;;;;;;17.15;82.41;99571.97;7369191;19;20033;-64
2022/09/07 02:39:49;;;;;;;0.00;0.00;;;;;;;17.21;82.13;99582.09;7366387;19;20070;-64
2022/09/07 02:42:14;;;;;;;0.00;0.00;;;;;;;17.22;82.45;99573.22;7365608;19;20553;-64
2022/09/07 02:44:44;;;;;;;0.00;0.00;;;;;;;17.25;82.27;99572.19;7363316;19;20018;-64
2022/09/07 02:47:47;;;;;;;0.00;0.00;;;;;;;17.30;82.16;99576.19;7363166;19;20035;-65
2022/09/07 02:50:12;;;;;;;0.00;0.00;;;;;;;17.25;82.60;99575.66;7263143;19;2004321;-64
2022/09/07 02:52:56;;;;;;;0.00;0.00;;;;;;;17.30;82.56;99578.00;7364034;19;20007;-65
2022/09/07 02:55:27;;;;;;;0.00;0.00;;;;;;;17.30;82.47;99570.94;7364309;19;20014;-64
2022/09/07 02:58:08;;;;;;;0.00;0.00;;;;;;;17.32;82.37;99573.44;7368466;19;20029;-64
2022/09/07 03:00:43;;;;;;;0.03;0.03;;;;;;;17.33;82.54;99575.13;7362822;19;20816;-64
2022/09/07 03:03:37;;;;;;;0.00;0.00;;;;;;;17.34;82.34;99575.03;7366586;19;20011;-64
2022/09/07 03:06:11;;;;;;;0.00;0.00;;;;;;;17.32;82.53;99573.44;7263980;19;2004484;-65
2022/09/07 03:08:45;;;;;;;0.00;0.00;;;;;;;17.31;82.46;99577.03;7365325;19;20002;-64
2022/09/07 03:11:12;;;;;;;0.00;0.00;;;;;;;17.29;82.69;99581.59;7366073;19;20009;-64
2022/09/07 03:13:37;;;;;;;0.00;0.00;;;;;;;17.17;82.32;99554.22;7357257;19;21030;-64
2022/09/07 03:16:03;;;;;;;0.00;0.00;;;;;;;17.26;82.76;99569.44;7365728;19;20010;-65
2022/09/07 03:18:28;;;;;;;0.00;0.00;;;;;;;17.29;82.90;99561.31;7360102;19;20033;-65
2022/09/07 03:20:54;;;;;;;0.00;0.00;;;;;;;17.29;82.92;99556.03;7366669;19;20020;-65
2022/09/07 03:23:19;;;;;;;0.00;0.00;;;;;;;17.28;83.01;99556.13;7367451;19;20002;-64
2022/09/07 03:25:46;;;;;;;0.00;0.00;;;;;;;17.32;83.05;99558.44;7362834;19;20014;-65
2022/09/07 03:28:12;;;;;;;0.10;0.10;;;;;;;17.31;82.48;99564.69;7366461;19;20026;-65
2022/09/07 03:30:42;;;;;;;0.05;0.05;;;;;;;17.31;82.81;99562.06;7365563;19;20013;-65
2022/09/07 03:33:08;;;;;;;0.05;0.05;;;;;;;17.36;82.65;99574.94;7364525;19;20011;-65
2022/09/07 03:35:34;;;;;;;0.00;0.00;;;;;;;17.34;82.44;99569.78;7363893;19;20035;-64
2022/09/07 03:38:00;;;;;;;0.00;0.00;;;;;;;17.31;82.35;99569.97;7367040;19;20018;-65
2022/09/07 03:40:26;;;;;;;0.00;0.00;;;;;;;17.37;82.67;99572.19;7365159;19;20022;-65
2022/09/07 03:42:51;;;;;;;0.00;0.00;;;;;;;17.27;82.60;99555.28;7365690;19;20017;-64
2022/09/07 03:45:17;;;;;;;0.00;0.00;;;;;;;17.37;82.58;99572.19;7361922;19;20039;-64
2022/09/07 03:47:43;;;;;;;0.00;0.00;;;;;;;17.36;82.66;99570.50;7364276;19;20943;-65
2022/09/07 03:50:09;;;;;;;0.08;0.08;;;;;;;17.36;82.61;99570.50;7367367;19;20015;-64
2022/09/07 03:52:35;;;;;;;0.00;0.00;;;;;;;17.32;82.85;99566.38;7365682;19;20010;-64
2022/09/07 03:55:00;;;;;;;0.00;0.00;;;;;;;17.37;82.45;99572.19;7363606;19;20030;-65
2022/09/07 03:57:26;;;;;;;0.00;0.00;;;;;;;17.37;82.62;99566.91;7366854;19;20021;-65
2022/09/07 03:59:51;;;;;;;0.00;0.00;;;;;;;17.38;82.58;99563.31;7363623;19;20022;-65
2022/09/07 04:02:17;;;;;;;0.00;0.00;;;;;;;17.32;82.43;99547.06;7366151;19;20010;-65
2022/09/07 04:04:44;;;;;;;0.00;0.00;;;;;;;17.29;82.36;99542.00;7364609;19;20014;-65
2022/09/07 04:07:10;;;;;;;0.00;0.00;;;;;;;17.37;82.13;99558.97;7366009;19;20025;-65
2022/09/07 04:09:36;;;;;;;0.00;0.00;;;;;;;17.36;81.79;99565.22;7364344;19;20011;-64
2022/09/07 04:12:01;;;;;;;0.00;0.00;;;;;;;17.36;81.81;99570.50;7366367;19;20014;-65
2022/09/07 04:14:27;;;;;;;0.00;0.00;;;;;;;17.34;81.44;99567.13;7361406;19;20010;-65
2022/09/07 04:16:52;;;;;;;0.00;0.00;;;;;;;17.26;81.61;99564.16;7369514;19;20018;-65
2022/09/07 04:19:18;;;;;;;0.08;0.08;;;;;;;17.32;81.45;99563.72;7363130;19;20738;-65
2022/09/07 04:21:45;;;;;;;0.00;0.00;;;;;;;17.24;81.52;99557.31;7366518;19;20010;-64
2022/09/07 04:24:12;;;;;;;0.00;0.00;;;;;;;17.27;81.33;99565.00;7361709;19;20040;-65
2022/09/07 04:26:38;;;;;;;0.00;0.00;;;;;;;17.32;81.51;99570.81;7365296;19;20007;-64
2022/09/07 04:29:04;;;;;;;0.00;0.00;;;;;;;17.29;81.96;99561.31;7364693;19;20013;-65
2022/09/07 04:31:31;;;;;;;0.10;0.10;;;;;;;17.32;81.57;99563.72;7366822;19;20352;-65
2022/09/07 04:33:56;;;;;;;0.00;0.00;;;;;;;17.32;81.53;99566.38;7364457;19;20006;-65
2022/09/07 04:36:23;;;;;;;0.00;0.00;;;;;;;17.32;81.41;99560.25;7365087;19;20570;-65
2022/09/07 04:38:54;;;;;;;0.10;0.10;;;;;;;17.32;81.13;99558.44;7363587;19;20035;-65
2022/09/07 04:41:20;;;;;;;0.00;0.00;;;;;;;17.31;81.27;99564.69;7364428;19;20603;-65
2022/09/07 04:43:46;;;;;;;0.08;0.08;;;;;;;17.30;81.42;99565.66;7361972;19;20014;-65
2022/09/07 04:46:19;;;;;;;0.03;0.03;;;;;;;17.31;81.02;99558.56;7365141;19;20010;-65
2022/09/07 04:48:49;;;;;;;0.00;0.00;;;;;;;17.31;80.87;99551.50;7362946;19;20023;-65
2022/09/07 04:51:18;;;;;;;0.00;0.00;;;;;;;17.28;81.07;99551.69;7364001;19;20018;-65
2022/09/07 04:53:47;;;;;;;0.00;0.00;;;;;;;17.29;81.25;99549.94;7363903;19;20562;-65
2022/09/07 04:56:13;;;;;;;0.00;0.00;;;;;;;17.25;80.85;99541.38;7362163;19;20026;-64
2022/09/07 04:58:38;;;;;;;0.00;0.00;;;;;;;17.22;80.98;99533.66;7363122;19;20527;-65
2022/09/07 05:01:05;;;;;;;0.03;0.03;;;;;;;17.14;81.12;99525.44;7364043;19;20022;-65
2022/09/07 05:03:33;;;;;;;0.03;0.03;;;;;;;17.21;80.63;99539.03;7363907;19;20515;-65
2022/09/07 05:06:01;;;;;;;;;;;;;;;17.30;80.57;99543.69;7366539;19;20027;-65
2022/09/07 05:08:27;;;;;;;0.00;0.00;;;;;;;17.23;80.74;99543.25;7362808;19;21431;-65
2022/09/07 05:10:54;;;;;;;0.00;0.00;;;;;;;17.21;80.33;99545.16;7366399;19;20059;-65
2022/09/07 05:13:20;;;;;;;0.05;0.05;;;;;;;17.09;80.32;99524.91;7362972;19;20027;-65
2022/09/07 05:15:45;;;;;;;0.00;0.00;;;;;;;17.17;80.35;99548.94;7363598;19;20025;-65
2022/09/07 05:18:14;;;;;;;0.00;0.00;;;;;;;17.15;80.97;99548.22;7362210;19;20014;-65
2022/09/07 05:20:40;;;;;;;0.05;0.05;;;;;;;17.14;80.58;99554.47;7361702;19;20102;-65
2022/09/07 05:23:06;;;;;;;0.00;0.00;;;;;;;17.11;80.47;99544.94;7363294;19;20007;-65
2022/09/07 05:25:31;;;;;;;0.00;0.00;;;;;;;17.10;80.33;99543.25;7363075;19;20033;-65
2022/09/07 05:27:57;;;;;;;0.00;0.00;;;;;;;17.04;80.56;99532.28;7362967;19;20037;-65
2022/09/07 05:30:23;;;;;;;0.00;0.00;;;;;;;17.09;80.98;99551.28;7361016;19;20010;-65
2022/09/07 05:32:48;;;;;;;0.00;0.00;;;;;;;17.09;80.67;99551.28;7364342;19;20123;-65
2022/09/07 05:35:15;;;;;;;0.00;0.00;;;;;;;17.07;80.75;99547.88;7361431;19;20503;-65
2022/09/07 05:37:40;;;;;;;0.00;0.00;;;;;;;16.99;80.56;99537.03;7364030;19;20010;-65
2022/09/07 05:40:07;;;;;;;0.00;0.00;;;;;;;17.06;81.11;99551.47;7362909;19;20018;-65
2022/09/07 05:42:34;;;;;;;0.08;0.08;;;;;;;17.09;81.58;99559.19;7362882;19;20017;-65
2022/09/07 05:44:59;;;;;;;;;;;;;;;17.13;80.70;99552.75;7362117;19;20348;-65
2022/09/07 05:47:25;;;;;;;0.00;0.00;;;;;;;17.08;81.54;99561.00;7364170;19;19917;-65
2022/09/07 05:49:53;;;;;;;0.00;0.00;;;;;;;17.08;81.27;99555.72;7362332;19;20018;-65
2022/09/07 05:52:18;;;;;;;0.10;0.10;;;;;;;17.07;81.34;99550.53;7362099;19;20013;-65
2022/09/07 05:54:44;;;;;;;0.00;0.00;;;;;;;17.10;81.07;99560.88;7360883;19;20530;-65
2022/09/07 05:57:11;;;;;;;0.00;0.00;;;;;;;17.05;81.48;99544.53;7362312;19;20010;-65
2022/09/07 05:59:36;;;;;;;0.08;0.08;;;;;;;17.10;81.08;99560.88;7352602;19;20033;-65
2022/09/07 06:02:02;;;;;;;0.08;0.08;;;;;;;17.10;81.37;99558.25;7359361;19;20015;-65
2022/09/07 06:04:27;;;;;;;0.00;0.00;;;;;;;17.10;81.37;99560.88;7359601;19;20021;-65
2022/09/07 06:06:53;;;;;;;0.10;0.10;;;;;;;17.12;81.69;99561.63;7359186;19;20025;-65
2022/09/07 06:09:18;;;;;;;0.00;0.00;;;;;;;17.03;81.43;99556.94;7366392;19;20495;-65
2022/09/07 06:11:43;;;;;;;0.00;0.00;;;;;;;16.99;81.65;99550.22;7367897;19;20014;-65
2022/09/07 06:14:09;;;;;;;0.00;0.00;;;;;;;17.10;81.64;99560.88;7366287;19;20662;-65
2022/09/07 06:16:35;;;;;;;0.00;0.00;;;;;;;17.07;81.47;99558.44;7366863;19;20010;-65
2022/09/07 06:19:05;;;;;;;0.10;0.10;;;;;;;17.05;81.76;99549.81;7367836;19;20047;-65
2022/09/07 06:21:34;;;;;;;0.10;0.10;;;;;;;17.08;82.04;99561.00;7366234;19;20108;-65
2022/09/07 06:23:59;;;;;;;0.00;0.00;;;;;;;17.07;82.14;99566.34;7367810;19;20006;-64
2022/09/07 06:26:25;;;;;;;0.00;0.00;;;;;;;17.05;81.96;99552.44;7363315;19;20022;-65
2022/09/07 06:28:50;;;;;;;0.10;0.10;;;;;;;17.06;81.72;99554.13;7364867;19;20573;-65
2022/09/07 06:31:18;;;;;;;0.00;0.00;;;;;;;17.07;82.30;99548.72;7362293;19;20010;-65
2022/09/07 06:33:43;;;;;;;;;;;;;;;17.12;81.54;99561.63;7360290;19;20028;-65
2022/09/07 06:36:13;;;;;;;0.03;0.03;;;;;;;17.11;81.67;99555.50;7359748;19;20624;-65
2022/09/07 06:38:39;;;;;;;0.00;0.00;;;;;;;17.11;81.67;99559.94;7365018;19;20761;-65
2022/09/07 06:41:05;;;;;;;0.00;0.00;;;;;;;17.10;81.83;99552.97;7368667;19;20030;-65
2022/09/07 06:43:30;;;;;;;0.00;0.00;;;;;;;17.04;81.84;99548.13;7364360;19;20603;-65
2022/09/07 06:45:56;;;;;;;0.00;0.00;;;;;;;17.04;81.68;99540.22;7367883;19;20545;-65
2022/09/07 06:48:22;;;;;;;0.00;0.00;;;;;;;17.11;81.95;99557.28;7364416;19;20370;-64
2022/09/07 06:51:04;;;;;;;0.03;0.03;;;;;;;17.09;81.77;99546.00;7366392;19;20024;-64
2022/09/07 06:53:32;;;;;;;0.00;0.00;;;;;;;17.04;81.58;99553.41;7365424;19;20011;-64
2022/09/07 06:55:57;;;;;;;;;;;;;;;17.15;81.31;99561.41;7366794;19;20043;-65
2022/09/07 06:58:26;;;;;;;0.00;0.00;;;;;;;17.09;81.83;99569.75;7364058;19;19933;-65
2022/09/07 07:00:53;;;;;;;0.00;0.00;;;;;;;17.08;81.92;99570.69;7367927;19;20466;-64
2022/09/07 07:03:19;;;;;;;0.00;0.00;;;;;;;17.02;81.56;99558.75;7357724;19;20042;-65
2022/09/07 07:05:53;;;;;;;0.00;0.00;;;;;;;17.07;81.86;99579.53;7365353;19;20010;-65
2022/09/07 07:08:19;;;;;;;0.03;0.03;;;;;;;16.96;81.62;99566.25;7365057;19;20040;-65
2022/09/07 07:10:45;;;;;;;0.00;0.00;;;;;;;17.03;81.91;99580.69;7366523;19;20515;-65
2022/09/07 07:13:10;;;;;;;0.00;0.00;;;;;;;17.02;81.82;99581.66;7367071;19;20017;-65
2022/09/07 07:15:35;;;;;;;0.00;0.00;;;;;;;17.02;81.84;99586.91;7362990;19;20047;-65
2022/09/07 07:18:01;;;;;;;0.00;0.00;;;;;;;17.02;82.00;99592.19;7364147;19;20490;-65
2022/09/07 07:20:27;;;;;;;0.00;0.00;;;;;;;17.02;81.51;99602.75;7366200;19;20104;-65
2022/09/07 07:22:52;;;;;;;0.00;0.00;;;;;;;17.03;81.63;99599.16;7366673;19;20022;-65
2022/09/07 07:25:18;;;;;;;0.00;0.00;;;;;;;17.03;81.85;99600.03;7366794;19;24887;-65
2022/09/07 07:27:44;;;;;;;0.00;0.00;;;;;;;16.89;81.79;99576.38;7364573;19;20006;-65
2022/09/07 07:30:12;;;;;;;0.10;0.10;;;;;;;17.05;82.11;99592.84;7367844;19;20026;-65
2022/09/07 07:32:38;;;;;;;0.10;0.10;;;;;;;17.02;81.96;99586.91;7366871;19;20014;-65
2022/09/07 07:35:07;;;;;;;0.10;0.10;;;;;;;17.08;82.23;99591.78;7365951;19;20503;-65
2022/09/07 07:37:33;;;;;;;0.00;0.00;;;;;;;17.11;81.98;99586.31;7365109;19;20502;-65
2022/09/07 07:39:59;;;;;;;0.00;0.00;;;;;;;17.12;81.73;99588.00;7367071;19;20010;-65
2022/09/07 07:42:25;;;;;;;0.10;0.10;;;;;;;17.10;81.95;99580.19;7363327;19;20477;-65
2022/09/07 07:44:50;;;;;;;0.10;0.10;;;;;;;17.17;81.91;99585.88;7364696;19;20494;-65
2022/09/07 07:47:15;;;;;;;0.00;0.00;;;;;;;17.20;82.13;99584.84;7366416;19;20017;-65
2022/09/07 07:49:41;;;;;;;0.10;0.10;;;;;;;17.22;82.25;99578.50;7365704;19;20043;-64
2022/09/07 07:52:06;;;;;;;0.00;0.00;;;;;;;17.24;82.12;99586.34;7363925;19;20014;-65
2022/09/07 07:54:35;;;;;;;0.00;0.00;;;;;;;17.24;82.23;99576.63;7363116;19;20022;-65
2022/09/07 07:57:01;;;;;;;0.10;0.10;;;;;;;17.27;82.47;99581.66;7364961;19;20554;-65
2022/09/07 07:59:26;;;;;;;0.08;0.08;;;;;;;17.30;82.31;99588.56;7365108;19;20031;-65
2022/09/07 08:01:52;;;;;;;0.00;0.00;;;;;;;17.31;82.33;99580.53;7365223;19;20039;-65
2022/09/07 08:04:17;;;;;;;0.00;0.00;;;;;;;17.34;82.43;99582.13;7363305;19;20017;-65
2022/09/07 08:06:43;;;;;;;0.00;0.00;;;;;;;17.35;82.26;99575.88;7363740;19;20036;-65
2022/09/07 08:09:08;;;;;;;0.00;0.00;;;;;;;17.29;82.71;99568.41;7366141;19;20018;-65
2022/09/07 08:11:34;;;;;;;0.10;0.10;;;;;;;17.41;82.65;99579.91;7363550;19;20085;-65
2022/09/07 08:14:01;;;;;;;0.00;0.00;;;;;;;17.43;82.62;99586.75;7363359;19;20014;-65
2022/09/07 08:16:26;;;;;;;0.10;0.10;;;;;;;17.34;82.65;99568.94;7362134;19;20371;-65
2022/09/07 08:18:52;;;;;;;0.00;0.00;;;;;;;17.48;82.22;99589.06;7366432;19;20421;-65
2022/09/07 08:21:18;;;;;;;0.00;0.00;;;;;;;17.49;82.56;99586.34;7363568;19;20012;-64
2022/09/07 08:23:43;;;;;;;0.00;0.00;;;;;;;17.53;82.28;99594.88;7360200;19;20011;-63
2022/09/07 08:26:08;;;;;;;0.00;0.00;;;;;;;17.51;82.43;99588.88;7362967;19;20074;-63
2022/09/07 08:28:36;;;;;;;0.08;0.08;;;;;;;17.43;82.37;99575.34;7363180;19;20010;-63
2022/09/07 08:31:10;;;;;;;0.00;0.00;;;;;;;17.51;82.38;99588.88;7360917;19;20021;-63
2022/09/07 08:33:36;;;;;;;0.00;0.00;;;;;;;17.50;82.81;99592.47;7363745;19;20018;-63
2022/09/07 08:36:04;;;;;;;0.00;0.00;;;;;;;17.52;82.56;99599.31;7363777;19;20011;-63
2022/09/07 08:38:31;;;;;;;0.00;0.00;;;;;;;17.52;83.15;99598.47;7361330;19;20006;-63
2022/09/07 08:40:59;;;;;;;0.10;0.10;;;;;;;17.54;82.94;99599.22;7360998;19;20038;-63
2022/09/07 08:43:30;;;;;;;0.00;0.00;;;;;;;17.54;83.32;99594.78;7362634;19;21364;-63
2022/09/07 08:46:03;;;;;;;0.10;0.10;;;;;;;17.59;83.06;99594.47;7362267;19;20070;-63
2022/09/07 08:48:32;;;;;;;0.00;0.00;;;;;;;17.62;83.24;99596.88;7362768;19;20654;-64
2022/09/07 08:51:33;;;;;;;0.10;0.10;;;;;;;17.69;82.96;99598.16;7364977;19;20035;-63
2022/09/07 08:53:59;;;;;;;0.00;0.00;;;;;;;17.67;83.04;99594.75;7257853;19;2004067;-63
2022/09/07 08:56:37;;;;;;;0.00;0.00;;;;;;;17.70;83.03;99589.28;7360702;19;20014;-63
2022/09/07 08:59:19;;;;;;;0.00;0.00;;;;;;;17.66;83.48;99585.16;7364043;19;20022;-63
2022/09/07 09:01:44;;;;;;;0.10;0.10;;;;;;;17.72;83.42;99600.56;7360759;19;20014;-64
2022/09/07 09:04:22;;;;;;;0.05;0.05;;;;;;;17.81;83.28;99602.59;7363075;19;20523;-64
2022/09/07 09:06:59;;;;;;;;;;;;;;;17.87;83.29;99611.91;7365386;19;20027;-64
2022/09/07 09:09:32;;;;;;;0.00;0.00;;;;;;;17.81;83.18;99594.69;7361747;19;20359;-64
2022/09/07 09:12:00;;;;;;;0.00;0.00;;;;;;;17.89;83.05;99605.56;7365177;19;20014;-64
2022/09/07 09:14:32;;;;;;;0.00;0.00;;;;;;;17.92;83.03;99608.94;7359609;19;20032;-64
2022/09/07 09:17:02;;;;;;;0.00;0.00;;;;;;;17.91;83.61;99601.97;7362373;19;20007;-64
2022/09/07 09:19:57;;;;;;;0.10;0.10;;;;;;;17.95;82.69;99609.56;7362624;19;20455;-64
2022/09/07 09:22:27;;;;;;;0.08;0.08;;;;;;;17.87;82.80;99607.44;7259505;19;2004455;-64
2022/09/07 09:25:25;;;;;;;0.00;0.00;;;;;;;17.94;82.88;99610.50;7360275;19;20018;-64
2022/09/07 09:27:51;;;;;;;0.00;0.00;;;;;;;17.82;83.00;99599.00;7258204;19;2004410;-64
2022/09/07 09:30:19;;;;;;;0.00;0.00;;;;;;;17.88;83.23;99617.06;7363106;19;20467;-64
2022/09/07 09:32:47;;;;;;;0.00;0.00;;;;;;;17.88;83.17;99614.41;7363278;19;20610;-64
2022/09/07 09:35:28;;;;;;;0.00;0.00;;;;;;;17.93;83.27;99605.34;7357785;19;20495;-64
2022/09/07 09:37:56;;;;;;;0.00;0.00;;;;;;;17.90;83.50;99611.69;7360893;19;20035;-64
2022/09/07 09:40:35;;;;;;;0.00;0.00;;;;;;;17.98;83.80;99619.06;7359091;19;20040;-64
2022/09/07 09:43:14;;;;;;;0.08;0.08;;;;;;;17.97;83.93;99615.56;7367806;19;20030;-65
2022/09/07 09:45:48;;;;;;;0.00;0.00;;;;;;;18.07;83.89;99621.06;7366993;19;20023;-65
2022/09/07 09:48:40;;;;;;;0.00;0.00;;;;;;;18.16;83.69;99612.47;7367884;19;20006;-65
2022/09/07 09:51:07;;;;;;;0.00;0.00;;;;;;;18.18;84.23;99613.19;7266348;19;2004583;-65
2022/09/07 09:53:39;;;;;;;0.10;0.10;;;;;;;18.30;84.21;99612.34;7366735;19;20013;-65
2022/09/07 09:56:06;;;;;;;0.10;0.10;;;;;;;18.38;83.82;99612.63;7368874;19;20017;-65
2022/09/07 09:58:32;;;;;;;0.00;0.00;;;;;;;18.34;83.28;99600.56;7366645;19;22388;-65
2022/09/07 10:01:22;;;;;;;0.00;0.00;;;;;;;18.49;82.99;99614.47;7367379;19;20014;-65
2022/09/07 10:03:48;;;;;;;0.10;0.10;;;;;;;18.63;83.55;99611.66;7366298;19;20039;-65
2022/09/07 10:06:17;;;;;;;0.00;0.00;;;;;;;18.86;83.84;99615.31;7369192;19;20074;-66
2022/09/07 10:09:16;;;;;;;0.00;0.00;;;;;;;19.10;83.53;99609.13;7366880;19;20023;-66
2022/09/07 10:11:56;;;;;;;0.00;0.00;;;;;;;19.23;82.32;99604.59;7264548;19;2004045;-66
2022/09/07 10:14:29;;;;;;;0.00;0.00;;;;;;;19.36;81.65;99615.94;7365237;19;20090;-66
2022/09/07 10:16:56;;;;;;;0.00;0.00;;;;;;;19.27;81.39;99595.47;7365958;19;20019;-63
2022/09/07 10:19:39;;;;;;;0.10;0.10;;;;;;;19.44;81.03;99618.84;7360274;19;20010;-63
2022/09/07 10:22:52;;;;;;;0.00;0.00;;;;;;;19.43;80.88;99606.56;7367813;19;20010;-63
2022/09/07 10:25:33;;;;;;;0.10;0.10;;;;;;;19.41;80.61;99613.78;7260747;19;2004377;-63
2022/09/07 10:28:12;;;;;;;0.00;0.00;;;;;;;19.41;81.29;99604.97;7362192;19;20011;-63
2022/09/07 10:30:59;;;;;;;0.00;0.00;;;;;;;19.43;80.67;99611.84;7363997;19;20134;-63
2022/09/07 10:33:49;;;;;;;0.10;0.10;;;;;;;19.49;80.64;99609.69;7368608;19;20006;-63
2022/09/07 10:36:48;;;;;;;0.00;0.00;;;;;;;19.48;81.01;99602.72;7365435;19;20028;-63
2022/09/07 10:39:17;;;;;;;0.00;0.00;;;;;;;19.47;80.83;99595.75;7261350;19;2004189;-63
2022/09/07 10:42:13;;;;;;;0.00;0.00;;;;;;;19.60;81.24;99601.78;7367700;19;21295;-63
2022/09/07 10:45:14;;;;;;;0.00;0.00;;;;;;;19.65;80.88;99600.47;7263620;19;2004327;-66
2022/09/07 10:48:14;;;;;;;0.00;0.00;;;;;;;19.78;80.58;99603.03;7264221;19;2004367;-66
2022/09/07 10:50:50;;;;;;;0.00;0.00;;;;;;;19.74;80.32;99587.47;7261146;19;2004561;-65
2022/09/07 10:53:51;;;;;;;0.10;0.10;;;;;;;19.90;80.40;99612.66;7365651;19;20825;-66
2022/09/07 10:57:04;;;;;;;0.00;0.00;;;;;;;19.96;79.88;99616.63;7262881;19;2004238;-66
2022/09/07 10:59:47;;;;;;;0.00;0.00;;;;;;;19.95;79.20;99615.78;7262758;19;2004623;-66
2022/09/07 11:02:23;;;;;;;0.00;0.00;;;;;;;19.88;77.86;99605.78;7366354;19;20016;-66
2022/09/07 11:05:00;;;;;;;0.00;0.00;;;;;;;19.83;77.91;99608.81;7364615;19;20018;-66
2022/09/07 11:07:47;;;;;;;0.00;0.00;;;;;;;19.85;78.39;99606.88;7364705;19;20470;-66
2022/09/07 11:10:15;;;;;;;0.00;0.00;;;;;;;19.88;78.56;99603.16;7364939;19;20449;-66
2022/09/07 11:12:43;;;;;;;0.05;0.05;;;;;;;19.89;78.84;99596.88;7365021;19;20003;-66
2022/09/07 11:15:11;;;;;;;0.05;0.05;;;;;;;20.06;78.95;99600.81;7364668;19;20007;-65
2022/09/07 11:17:42;;;;;;;0.00;0.00;;;;;;;20.20;78.54;99600.56;7366199;19;20099;-66
2022/09/07 11:20:19;;;;;;;0.10;0.10;;;;;;;20.30;77.71;99611.28;7366654;19;20762;-65
2022/09/07 11:22:50;;;;;;;0.10;0.10;;;;;;;20.41;77.89;99609.44;7367456;19;20035;-66
2022/09/07 11:25:39;;;;;;;0.00;0.00;;;;;;;20.54;77.47;99613.81;7365053;19;20010;-66
2022/09/07 11:28:18;;;;;;;0.00;0.00;;;;;;;20.63;77.26;99586.50;7366563;19;20013;-65
2022/09/07 11:30:52;;;;;;;0.00;0.00;;;;;;;20.74;76.68;99605.06;7365344;19;20014;-63
2022/09/07 11:33:25;;;;;;;0.00;0.00;;;;;;;20.85;76.15;99597.03;7364653;19;20055;-63
2022/09/07 11:36:02;;;;;;;0.10;0.10;;;;;;;20.77;74.73;99575.59;7363954;19;20021;-63
2022/09/07 11:38:38;;;;;;;0.00;0.00;;;;;;;20.84;75.07;99598.03;7363086;19;20011;-63
2022/09/07 11:41:18;;;;;;;0.05;0.05;;;;;;;20.78;74.84;99595.84;7366847;19;20019;-63
2022/09/07 11:43:47;;;;;;;0.00;0.00;;;;;;;20.64;74.19;99609.44;7363638;19;20010;-63
2022/09/07 11:46:18;;;;;;;0.00;0.00;;;;;;;20.42;74.72;99595.22;7363111;19;20090;-63
2022/09/07 11:48:57;;;;;;;0.00;0.00;;;;;;;20.39;75.40;99611.38;7360242;19;20006;-63
2022/09/07 11:51:34;;;;;;;0.00;0.00;;;;;;;20.19;75.15;99598.91;7360216;19;20082;-62
2022/09/07 11:54:22;;;;;;;0.00;0.00;;;;;;;20.08;76.24;99623.63;7361413;19;20044;-62